Time;durP1;ratioP1;P1;durP2;ratioP2;P2;SDS_P1;SDS_P2;PMS_P1;PMS_P2;Temp;Humidity;BMP_temperature;BMP_pressure;BME280_temperature;BME280_humidity;BME280_pressure;Samples;Min_cycle;Max_cycle;Signal;HPM_P1;HPM_P2
2021/05/26 00:03:41;;;;;;;21.33;14.00;;;;;;;17.16;100.00;94844.03;10459173;28;20021;-84
2021/05/26 00:08:42;;;;;;;21.33;13.83;;;;;;;16.85;100.00;94845.59;10459342;28;20029;-84
2021/05/26 00:13:42;;;;;;;19.70;13.13;;;;;;;16.76;100.00;94847.47;10458736;28;20025;-83
2021/05/26 00:18:43;;;;;;;18.77;13.05;;;;;;;16.65;100.00;94840.69;10458643;28;20025;-83
2021/05/26 00:23:43;;;;;;;18.33;13.23;;;;;;;16.49;100.00;94846.44;10458450;28;20085;-84
2021/05/26 00:28:46;;;;;;;21.77;14.00;;;;;;;16.50;100.00;94848.06;10452803;28;20790;-83
2021/05/26 00:33:46;;;;;;;18.42;13.32;;;;;;;16.52;100.00;94843.16;10452600;28;20314;-84
2021/05/26 00:38:48;;;;;;;21.60;14.90;;;;;;;16.48;100.00;94844.88;10456306;28;20502;-84
2021/05/26 00:43:49;;;;;;;23.08;14.68;;;;;;;16.13;100.00;94854.63;10457983;28;20565;-84
2021/05/26 00:48:49;;;;;;;20.60;16.08;;;;;;;16.06;100.00;94849.59;10456865;28;20123;-84
2021/05/26 00:53:50;;;;;;;21.03;15.70;;;;;;;16.18;100.00;94855.31;10457588;28;20095;-83
2021/05/26 00:58:50;;;;;;;21.93;16.80;;;;;;;15.99;100.00;94863.59;10457350;28;20307;-84
2021/05/26 01:03:50;;;;;;;28.98;18.10;;;;;;;15.99;100.00;94858.19;10455810;28;20025;-84
2021/05/26 01:08:56;;;;;;;28.97;17.53;;;;;;;15.94;100.00;94854.78;10456201;28;20032;-84
2021/05/26 01:13:57;;;;;;;26.17;19.90;;;;;;;15.89;100.00;94866.50;10455283;28;20063;-83
2021/05/26 01:18:57;;;;;;;26.73;20.42;;;;;;;15.79;100.00;94885.66;10453418;28;20036;-83
2021/05/26 01:23:57;;;;;;;33.47;23.20;;;;;;;15.82;100.00;94880.50;10453728;28;20068;-83
2021/05/26 01:28:58;;;;;;;30.63;21.60;;;;;;;15.72;100.00;94884.16;10454883;28;20323;-83
2021/05/26 01:33:58;;;;;;;32.40;23.10;;;;;;;15.60;100.00;94883.06;10455269;28;20499;-83
2021/05/26 01:38:59;;;;;;;36.50;23.30;;;;;;;15.53;100.00;94878.84;10454546;28;20036;-83
2021/05/26 01:43:59;;;;;;;31.67;23.20;;;;;;;15.59;100.00;94887.69;10451774;28;20021;-83
2021/05/26 01:49:00;;;;;;;34.47;23.88;;;;;;;15.59;100.00;94892.31;10449362;28;20111;-83
2021/05/26 01:54:01;;;;;;;37.17;26.33;;;;;;;15.50;100.00;94889.47;10450080;28;20476;-83
2021/05/26 01:59:01;;;;;;;33.97;26.75;;;;;;;15.44;100.00;94882.56;10451358;28;20267;-77
2021/05/26 02:04:02;;;;;;;32.22;25.63;;;;;;;15.41;100.00;94886.66;10451694;28;20024;-83
2021/05/26 02:09:03;;;;;;;39.60;27.58;;;;;;;15.35;100.00;94879.75;10453591;28;20021;-82
2021/05/26 02:14:06;;;;;;;40.28;27.88;;;;;;;15.29;100.00;94884.44;10454632;28;20032;-83
2021/05/26 02:19:10;;;;;;;33.25;26.02;;;;;;;15.26;100.00;94884.25;10453121;28;20055;-83
2021/05/26 02:24:11;;;;;;;46.00;27.27;;;;;;;15.23;100.00;94891.06;10453901;28;20052;-84
2021/05/26 02:29:11;;;;;;;36.47;25.23;;;;;;;15.29;100.00;94883.66;10452355;28;20040;-84
2021/05/26 02:34:12;;;;;;;34.13;26.07;;;;;;;15.15;100.00;94895.28;10453491;28;20283;-83
2021/05/26 02:39:30;;;;;;;38.13;26.65;;;;;;;15.28;100.00;94893.69;10453401;28;20105;-84
2021/05/26 02:44:31;;;;;;;34.00;25.90;;;;;;;15.16;100.00;94904.19;10452365;28;20032;-84
2021/05/26 02:49:31;;;;;;;33.70;26.07;;;;;;;15.19;100.00;94898.97;10452997;28;20040;-84
2021/05/26 02:54:32;;;;;;;31.63;23.83;;;;;;;15.30;100.00;94906.94;10452966;28;20358;-84
2021/05/26 02:59:32;;;;;;;31.67;23.13;;;;;;;15.44;100.00;94915.84;10451790;28;20480;-83
2021/05/26 03:04:32;;;;;;;34.63;24.43;;;;;;;15.58;100.00;94923.22;10452998;28;20025;-83
2021/05/26 03:09:33;;;;;;;31.17;22.80;;;;;;;15.58;100.00;94934.03;10452942;28;20155;-84
2021/05/26 03:14:34;;;;;;;35.40;21.83;;;;;;;15.62;100.00;94938.56;10434941;28;20036;-84
2021/05/26 03:19:34;;;;;;;28.38;21.90;;;;;;;15.68;100.00;94952.81;10451142;28;20389;-83
2021/05/26 03:24:35;;;;;;;28.55;22.00;;;;;;;15.74;100.00;94954.34;10452287;28;20056;-83
2021/05/26 03:29:36;;;;;;;33.88;23.02;;;;;;;15.85;100.00;94960.38;10453498;28;20064;-84
2021/05/26 03:34:36;;;;;;;28.45;21.75;;;;;;;15.92;100.00;94954.56;10459003;28;20108;-83
2021/05/26 03:39:36;;;;;;;27.10;21.87;;;;;;;15.99;100.00;94957.66;10458716;28;20464;-83
2021/05/26 03:44:37;;;;;;;33.00;21.20;;;;;;;16.16;100.00;94965.16;10460001;28;20025;-83
2021/05/26 03:49:37;;;;;;;36.65;23.80;;;;;;;16.13;100.00;94977.44;10472720;28;20060;-82
2021/05/26 03:54:38;;;;;;;28.15;20.58;;;;;;;16.15;100.00;94969.81;10458017;28;20416;-83
2021/05/26 03:59:38;;;;;;;29.33;21.50;;;;;;;16.33;100.00;94970.78;10458384;28;20541;-83
2021/05/26 04:04:41;;;;;;;27.13;20.93;;;;;;;16.36;100.00;94978.31;10459289;28;20096;-83
2021/05/26 04:09:42;;;;;;;31.42;22.25;;;;;;;16.12;100.00;94978.53;10458626;28;20647;-83
2021/05/26 04:14:42;;;;;;;45.00;25.13;;;;;;;15.96;100.00;94978.03;10419714;28;20477;-82
2021/05/26 04:19:43;;;;;;;34.13;25.27;;;;;;;15.79;100.00;94985.94;10419791;28;20128;-82
2021/05/26 04:24:44;;;;;;;39.15;25.08;;;;;;;15.85;100.00;94988.28;10417251;28;20049;-82
2021/05/26 04:29:44;;;;;;;33.83;24.73;;;;;;;15.94;100.00;94991.09;10416850;28;20033;-81
2021/05/26 04:34:45;;;;;;;42.15;26.10;;;;;;;15.96;100.00;94993.50;10409157;28;20456;-82
2021/05/26 04:39:46;;;;;;;27.52;20.35;;;;;;;16.05;100.00;94999.84;10406604;28;20038;-76
2021/05/26 04:44:46;;;;;;;27.10;18.20;;;;;;;16.14;100.00;94994.50;10405498;28;20848;-76
2021/05/26 04:49:46;;;;;;;26.57;16.57;;;;;;;16.65;100.00;94992.66;10407296;28;20119;-77
2021/05/26 04:54:47;;;;;;;28.10;16.95;;;;;;;16.69;100.00;95002.56;10407764;28;20034;-77
2021/05/26 04:59:47;;;;;;;20.70;12.70;;;;;;;17.13;100.00;94996.72;10443117;28;20111;-76
2021/05/26 05:04:48;;;;;;;23.07;12.40;;;;;;;16.66;100.00;95002.38;10448151;28;20028;-77
2021/05/26 05:09:48;;;;;;;23.67;12.73;;;;;;;16.42;100.00;95005.34;10447825;28;20280;-77
2021/05/26 05:14:48;;;;;;;16.35;11.52;;;;;;;17.15;100.00;94992.59;10447580;28;20656;-77
2021/05/26 05:19:49;;;;;;;16.93;10.97;;;;;;;17.07;100.00;95001.50;10447949;28;20104;-77
2021/05/26 05:24:49;;;;;;;20.97;11.67;;;;;;;17.42;100.00;95012.59;10447429;28;20044;-77
2021/05/26 05:29:49;;;;;;;15.17;10.47;;;;;;;17.71;100.00;95006.69;10446833;28;20112;-77
2021/05/26 05:34:50;;;;;;;19.03;10.13;;;;;;;17.86;100.00;95010.13;10446916;28;20044;-77
2021/05/26 05:39:51;;;;;;;19.57;11.20;;;;;;;17.33;100.00;95004.41;10446775;28;20406;-77
2021/05/26 05:44:51;;;;;;;16.83;10.07;;;;;;;18.01;100.00;95008.94;10447051;28;20033;-77
2021/05/26 05:49:51;;;;;;;20.80;9.20;;;;;;;19.42;100.00;95011.59;10445540;28;20021;-78
2021/05/26 05:54:52;;;;;;;14.03;7.60;;;;;;;19.83;100.00;95009.44;10446260;28;20033;-77
2021/05/26 05:59:54;;;;;;;16.37;7.97;;;;;;;20.08;100.00;95005.03;10446600;28;20048;-77
2021/05/26 06:04:54;;;;;;;12.55;8.90;;;;;;;19.80;100.00;95010.91;10405374;28;20032;-77
2021/05/26 06:09:54;;;;;;;15.43;8.03;;;;;;;18.47;100.00;95010.38;10403358;28;20385;-77
2021/05/26 06:14:55;;;;;;;13.30;7.03;;;;;;;18.35;100.00;95015.63;10403041;28;20108;-77
2021/05/26 06:19:55;;;;;;;12.93;6.77;;;;;;;17.70;100.00;95020.59;10402815;28;20083;-77
2021/05/26 06:24:55;;;;;;;22.10;8.63;;;;;;;16.31;100.00;95029.16;10403809;28;20045;-77
2021/05/26 06:29:56;;;;;;;20.30;9.23;;;;;;;15.63;100.00;95026.03;10404117;28;20276;-77
2021/05/26 06:34:56;;;;;;;11.80;7.67;;;;;;;15.69;100.00;95022.94;10403727;28;20741;-77
2021/05/26 06:39:57;;;;;;;16.90;7.17;;;;;;;15.96;100.00;95026.03;10403949;28;20080;-77
2021/05/26 06:44:57;;;;;;;19.17;8.50;;;;;;;15.76;100.00;95029.91;10403937;28;20037;-77
2021/05/26 06:49:58;;;;;;;11.77;7.93;;;;;;;15.85;100.00;95025.41;10403801;28;20512;-77
2021/05/26 06:54:59;;;;;;;12.55;8.02;;;;;;;15.69;100.00;95022.16;10403287;28;20034;-77
2021/05/26 06:59:59;;;;;;;18.70;10.17;;;;;;;15.62;100.00;95019.03;10403407;28;20033;-77
2021/05/26 07:04:59;;;;;;;10.95;8.00;;;;;;;15.45;100.00;95025.03;10406113;28;20021;-77
2021/05/26 07:10:00;;;;;;;13.03;7.90;;;;;;;15.74;100.00;95019.38;10410682;28;20025;-77
2021/05/26 07:15:00;;;;;;;14.23;7.57;;;;;;;15.84;100.00;95016.50;10410024;28;20716;-77
2021/05/26 07:20:03;;;;;;;14.10;8.48;;;;;;;16.28;100.00;95016.19;10410952;28;20480;-77
2021/05/26 07:25:04;;;;;;;13.65;7.68;;;;;;;16.77;100.00;95011.09;10408788;28;20759;-77
2021/05/26 07:30:05;;;;;;;12.52;5.80;;;;;;;17.04;100.00;95005.63;10424532;28;20059;-76
2021/05/26 07:35:06;;;;;;;23.38;8.23;;;;;;;17.34;100.00;95013.34;10435104;28;20037;-77
2021/05/26 07:40:09;;;;;;;15.18;7.93;;;;;;;17.57;100.00;95012.22;10407487;28;20031;-77
2021/05/26 07:45:10;;;;;;;13.35;5.82;;;;;;;17.52;100.00;95008.81;10408799;28;20033;-77
2021/05/26 07:50:12;;;;;;;10.80;6.85;;;;;;;17.75;100.00;95006.88;10446248;28;20031;-77
2021/05/26 07:55:13;;;;;;;11.10;5.82;;;;;;;17.04;100.00;95007.53;10448585;28;20029;-77
2021/05/26 08:00:14;;;;;;;10.88;5.70;;;;;;;16.81;100.00;95009.38;10449699;28;20029;-77
2021/05/26 08:05:16;;;;;;;16.02;6.97;;;;;;;16.99;100.00;94999.50;10448606;28;20484;-77
2021/05/26 08:10:16;;;;;;;13.40;5.72;;;;;;;17.22;100.00;95000.31;10447175;28;20017;-77
2021/05/26 08:15:17;;;;;;;9.10;6.03;;;;;;;17.59;100.00;94996.38;10448010;28;20036;-77
2021/05/26 08:20:18;;;;;;;19.67;6.50;;;;;;;18.47;100.00;94985.88;10448126;28;20029;-77
2021/05/26 08:25:18;;;;;;;9.82;5.43;;;;;;;18.82;100.00;94982.41;10420614;28;20042;-77
2021/05/26 08:30:19;;;;;;;12.55;6.35;;;;;;;19.09;100.00;94989.50;10407017;28;20040;-77
2021/05/26 08:35:20;;;;;;;8.80;4.78;;;;;;;19.27;100.00;94982.09;10406472;28;20776;-77
2021/05/26 08:40:20;;;;;;;14.33;5.37;;;;;;;18.90;100.00;94987.88;10442837;28;20033;-77
2021/05/26 08:45:21;;;;;;;20.83;6.78;;;;;;;19.51;100.00;94980.75;10447149;28;20262;-77
2021/05/26 08:50:21;;;;;;;7.57;5.20;;;;;;;19.41;100.00;94982.72;10447106;28;20036;-77
2021/05/26 08:55:22;;;;;;;8.97;5.70;;;;;;;18.88;100.00;94981.97;10413263;28;20121;-77
2021/05/26 09:00:22;;;;;;;14.82;6.45;;;;;;;18.62;100.00;94971.81;10404318;28;20044;-78
2021/05/26 09:05:25;;;;;;;14.80;6.17;;;;;;;18.62;100.00;94982.69;10404173;28;20522;-78
2021/05/26 09:10:26;;;;;;;16.48;5.95;;;;;;;19.54;100.00;94956.41;10403084;28;20152;-78
2021/05/26 09:15:27;;;;;;;12.45;5.75;;;;;;;19.83;100.00;94965.81;10402312;28;20434;-78
2021/05/26 09:20:30;;;;;;;14.37;6.77;;;;;;;20.08;100.00;94955.91;10402303;28;20022;-77
2021/05/26 09:25:33;;;;;;;12.20;5.78;;;;;;;21.51;100.00;94950.69;10432373;28;20044;-78
2021/05/26 09:30:33;;;;;;;9.65;5.80;;;;;;;23.06;100.00;94943.84;10444581;28;20075;-78
2021/05/26 09:35:34;;;;;;;11.97;5.07;;;;;;;24.71;83.69;94939.84;10445135;28;20094;-78
2021/05/26 09:40:38;;;;;;;21.93;4.73;;;;;;;25.90;70.96;94927.63;10444570;28;20447;-78
2021/05/26 09:45:39;;;;;;;9.57;4.90;;;;;;;28.34;56.42;94909.81;10445356;28;20021;-78
2021/05/26 09:50:39;;;;;;;11.67;4.60;;;;;;;28.38;57.95;94905.06;10444465;28;20033;-78
2021/05/26 09:55:40;;;;;;;9.80;4.70;;;;;;;29.32;54.41;94902.88;10443514;28;20037;-78
2021/05/26 10:00:43;;;;;;;8.57;4.10;;;;;;;31.86;42.42;94885.47;10444958;28;20423;-78
2021/05/26 10:05:43;;;;;;;5.50;4.13;;;;;;;33.22;41.10;94879.81;10443918;28;20850;-78
2021/05/26 10:10:51;;;;;;;7.87;5.13;;;;;;;33.39;41.35;94875.22;10442945;28;20033;-79
2021/05/26 10:15:52;;;;;;;9.18;4.50;;;;;;;34.63;37.98;94864.56;10443857;28;20502;-76
2021/05/26 10:20:53;;;;;;;6.93;4.30;;;;;;;36.00;37.30;94850.56;10443017;28;20021;-77
2021/05/26 10:25:54;;;;;;;8.77;5.13;;;;;;;35.47;36.10;94852.56;10443356;28;20534;-76
2021/05/26 10:30:56;;;;;;;11.60;4.55;;;;;;;35.81;33.70;94843.00;10443213;28;20325;-77
2021/05/26 10:35:58;;;;;;;9.23;4.38;;;;;;;35.84;35.09;94834.56;10435432;28;20031;-76
2021/05/26 10:41:00;;;;;;;11.18;4.72;;;;;;;36.15;36.42;94811.84;10401844;28;20152;-77
2021/05/26 10:46:03;;;;;;;16.13;4.93;;;;;;;36.37;35.80;94812.09;10401682;28;20075;-77
2021/05/26 10:51:03;;;;;;;4.93;3.72;;;;;;;37.52;32.25;94799.66;10400920;28;20573;-76
2021/05/26 10:56:04;;;;;;;7.18;4.05;;;;;;;37.51;31.17;94786.91;10401003;28;20091;-78
2021/05/26 11:01:04;;;;;;;9.32;5.18;;;;;;;36.26;31.94;94784.34;10401550;28;20025;-78
2021/05/26 11:06:06;;;;;;;11.07;4.68;;;;;;;32.19;41.63;94781.16;10400953;28;20033;-78
2021/05/26 11:11:18;;;;;;;9.07;4.93;;;;;;;30.58;45.55;94778.19;10400842;28;20026;-77
2021/05/26 11:16:18;;;;;;;11.15;5.80;;;;;;;29.61;46.97;94770.78;10400954;28;20560;-77
2021/05/26 11:21:18;;;;;;;9.50;5.73;;;;;;;28.20;53.17;94768.75;10400771;28;20029;-77
2021/05/26 11:26:20;;;;;;;10.63;6.50;;;;;;;27.39;61.42;94761.06;10435147;28;20052;-77
2021/05/26 11:31:22;;;;;;;10.20;7.13;;;;;;;27.03;62.81;94748.84;10403899;28;20091;-77
2021/05/26 11:36:41;;;;;;;11.25;6.00;;;;;;;27.07;70.58;94742.22;10400256;28;20068;-77
2021/05/26 11:41:42;;;;;;;13.07;7.30;;;;;;;27.26;72.71;94723.84;10400101;28;20030;-77
2021/05/26 11:46:45;;;;;;;11.07;6.40;;;;;;;27.47;65.37;94715.00;10399691;28;20032;-78
2021/05/26 11:52:00;;;;;;;10.80;6.88;;;;;;;27.16;65.18;94716.28;10403798;28;20053;-77
2021/05/26 11:57:06;;;;;;;12.43;7.00;;;;;;;27.04;65.66;94701.59;10407699;28;20049;-77
2021/05/26 12:02:07;;;;;;;16.23;6.90;;;;;;;26.80;74.41;94702.16;10407880;28;20140;-77
2021/05/26 12:07:08;;;;;;;11.87;6.67;;;;;;;26.14;69.58;94692.34;10407000;28;20435;-77
2021/05/26 12:12:16;;;;;;;12.60;6.95;;;;;;;26.00;72.26;94695.69;10406955;28;20113;-78
2021/05/26 12:17:19;;;;;;;10.80;7.35;;;;;;;25.40;74.16;94691.69;10406347;28;20115;-77
2021/05/26 12:22:23;;;;;;;9.40;7.60;;;;;;;25.35;77.29;94683.75;10418836;28;20422;-77
2021/05/26 12:27:43;;;;;;;17.90;7.68;;;;;;;25.75;77.40;94687.88;10447201;28;20902;-77
2021/05/26 12:32:44;;;;;;;12.38;7.85;;;;;;;25.92;82.81;94675.50;10447127;28;20033;-77
2021/05/26 12:37:50;;;;;;;12.65;7.03;;;;;;;26.49;76.23;94671.09;10447639;28;20029;-77
2021/05/26 12:42:51;;;;;;;10.85;6.75;;;;;;;26.97;70.20;94654.63;10445601;28;20025;-79
2021/05/26 12:47:53;;;;;;;13.13;7.85;;;;;;;26.85;70.16;94655.72;10448087;28;20025;-79
2021/05/26 12:53:06;;;;;;;11.90;6.88;;;;;;;26.55;71.81;94642.00;10448984;28;20104;-79
2021/05/26 12:58:14;;;;;;;13.95;7.18;;;;;;;26.29;76.15;94649.25;10448373;28;20032;-80
2021/05/26 13:03:18;;;;;;;11.55;7.03;;;;;;;26.30;77.04;94634.28;10443847;28;20016;-78
2021/05/26 13:08:22;;;;;;;15.95;7.00;;;;;;;26.53;76.97;94631.38;10447840;28;20029;-78
2021/05/26 13:13:30;;;;;;;12.07;7.15;;;;;;;26.39;75.86;94622.97;10458719;28;20110;-78
2021/05/26 13:18:31;;;;;;;13.93;7.80;;;;;;;26.00;79.09;94617.78;10448064;28;20043;-79
2021/05/26 13:23:32;;;;;;;12.70;7.43;;;;;;;25.89;81.08;94620.41;10446135;28;20048;-79
2021/05/26 13:28:38;;;;;;;11.03;7.97;;;;;;;25.96;82.12;94626.00;10447685;28;20135;-79
2021/05/26 13:33:39;;;;;;;14.77;7.32;;;;;;;26.35;80.31;94609.13;10455643;28;20287;-80
2021/05/26 13:38:41;;;;;;;12.18;7.53;;;;;;;25.97;81.30;94608.31;10447752;28;20130;-79
2021/05/26 13:43:41;;;;;;;12.93;8.63;;;;;;;25.84;85.90;94599.47;10446347;28;20115;-79
2021/05/26 13:48:42;;;;;;;10.73;6.97;;;;;;;25.72;82.96;94603.28;10445172;28;20167;-79
2021/05/26 13:53:42;;;;;;;12.10;7.83;;;;;;;25.58;92.31;94598.38;10444195;28;20025;-79
2021/05/26 13:58:44;;;;;;;15.68;7.68;;;;;;;25.53;88.09;94595.94;10446818;28;20056;-79
2021/05/26 14:03:44;;;;;;;12.25;7.10;;;;;;;25.40;90.27;94597.38;10443749;28;20029;-78
2021/05/26 14:08:45;;;;;;;18.13;8.87;;;;;;;25.48;89.26;94601.81;10444649;28;20562;-79
2021/05/26 14:13:45;;;;;;;21.83;6.80;;;;;;;25.58;89.75;94595.63;10443817;28;20033;-79
2021/05/26 14:18:45;;;;;;;9.63;6.40;;;;;;;25.39;89.82;94588.28;10443410;28;20040;-79
2021/05/26 14:23:46;;;;;;;16.93;7.33;;;;;;;25.06;94.67;94605.47;10425611;28;20029;-77
2021/05/26 14:28:46;;;;;;;17.60;7.18;;;;;;;24.96;94.51;94593.13;10443516;28;20041;-79
2021/05/26 14:33:46;;;;;;;10.93;7.20;;;;;;;24.85;95.87;94600.44;10442302;28;20028;-78
2021/05/26 14:43:58;;;;;;;15.73;7.72;;;;;;;24.57;100.00;94582.28;10403733;28;20021;-79
2021/05/26 14:48:59;;;;;;;13.43;7.60;;;;;;;24.58;100.00;94578.38;10403737;28;20053;-80
2021/05/26 14:54:00;;;;;;;15.63;8.40;;;;;;;24.67;100.00;94569.91;10402677;28;20146;-80
2021/05/26 14:59:00;;;;;;;12.15;8.68;;;;;;;24.86;99.75;94564.31;10422152;28;20827;-79
2021/05/26 15:04:02;;;;;;;13.77;6.83;;;;;;;25.05;96.61;94555.19;10442899;28;20036;-79
2021/05/26 15:09:03;;;;;;;9.75;5.63;;;;;;;25.11;96.71;94555.66;10440893;28;20428;-79
2021/05/26 15:14:04;;;;;;;11.85;6.43;;;;;;;25.31;93.99;94548.06;10442978;28;20139;-79
2021/05/26 15:19:04;;;;;;;16.27;6.13;;;;;;;25.34;93.84;94549.31;10443060;28;20026;-78
2021/05/26 15:24:05;;;;;;;15.57;6.30;;;;;;;25.34;92.26;94535.56;10441631;28;20120;-78
2021/05/26 15:29:06;;;;;;;13.85;6.45;;;;;;;25.22;92.28;94529.09;10450382;28;20155;-79
2021/05/26 15:34:06;;;;;;;12.90;6.77;;;;;;;25.19;93.78;94523.56;10450948;28;20036;-78
2021/05/26 15:39:10;;;;;;;15.87;6.47;;;;;;;25.19;94.35;94523.56;10451027;28;20436;-78
2021/05/26 15:44:10;;;;;;;13.32;7.13;;;;;;;25.20;95.46;94508.63;10451108;28;20294;-79
2021/05/26 15:49:10;;;;;;;8.70;6.50;;;;;;;25.10;97.84;94517.53;10450981;28;20029;-79
2021/05/26 15:54:11;;;;;;;8.80;6.67;;;;;;;24.48;100.00;94527.59;10450979;28;20025;-79
2021/05/26 15:59:12;;;;;;;13.27;6.93;;;;;;;24.07;100.00;94530.00;10451469;28;20024;-79
2021/05/26 16:04:12;;;;;;;12.52;6.78;;;;;;;23.73;100.00;94529.75;10449603;28;20039;-79
2021/05/26 16:09:13;;;;;;;12.03;6.67;;;;;;;23.60;100.00;94522.84;10450462;28;20043;-78
2021/05/26 16:14:14;;;;;;;10.63;6.65;;;;;;;23.42;100.00;94525.25;10419188;28;20034;-78
2021/05/26 16:19:14;;;;;;;10.45;6.68;;;;;;;23.35;100.00;94531.38;10405781;28;20033;-78
2021/05/26 16:24:14;;;;;;;11.83;6.83;;;;;;;23.30;100.00;94531.63;10423884;28;20048;-77
2021/05/26 16:29:15;;;;;;;9.60;6.90;;;;;;;23.24;100.00;94536.63;10445714;28;20029;-78
2021/05/26 16:34:15;;;;;;;12.17;7.70;;;;;;;23.28;100.00;94520.25;10447533;28;20129;-78
2021/05/26 16:39:16;;;;;;;13.27;7.50;;;;;;;23.08;100.00;94528.44;10410688;28;20033;-78
2021/05/26 16:44:16;;;;;;;10.55;7.00;;;;;;;22.46;100.00;94520.75;10415400;28;20025;-78
2021/05/26 16:49:17;;;;;;;11.90;7.57;;;;;;;22.31;100.00;94525.06;10446097;28;20021;-78
2021/05/26 16:54:21;;;;;;;12.63;7.45;;;;;;;22.30;100.00;94536.38;10446838;28;20029;-78
2021/05/26 16:59:21;;;;;;;13.02;7.85;;;;;;;22.43;100.00;94537.09;10446958;28;20908;-79
2021/05/26 17:04:21;;;;;;;13.77;7.37;;;;;;;22.26;100.00;94532.75;10447949;28;20025;-78
2021/05/26 17:09:22;;;;;;;9.40;7.00;;;;;;;22.01;100.00;94533.69;10447666;28;20028;-79
2021/05/26 17:14:23;;;;;;;13.82;7.25;;;;;;;21.88;100.00;94523.16;10448095;28;20025;-79
2021/05/26 17:19:23;;;;;;;13.37;7.67;;;;;;;21.85;100.00;94521.91;10442637;28;20037;-78
2021/05/26 17:24:24;;;;;;;12.38;7.78;;;;;;;21.81;100.00;94518.28;10424748;28;20345;-76
2021/05/26 17:29:24;;;;;;;8.38;7.45;;;;;;;21.76;100.00;94526.75;10445547;28;20033;-77
2021/05/26 17:34:25;;;;;;;10.53;7.33;;;;;;;21.54;100.00;94542.56;10444814;28;20064;-76
2021/05/26 17:39:25;;;;;;;15.77;6.95;;;;;;;21.43;100.00;94542.22;10433684;28;20021;-76
2021/05/26 17:44:25;;;;;;;16.43;8.30;;;;;;;21.44;100.00;94543.84;10402284;28;20067;-77
2021/05/26 17:49:27;;;;;;;14.17;8.80;;;;;;;21.39;100.00;94562.41;10403020;28;20028;-77
2021/05/26 17:54:27;;;;;;;11.70;8.80;;;;;;;21.41;100.00;94571.09;10401838;28;20021;-77
2021/05/26 17:59:28;;;;;;;12.75;8.32;;;;;;;21.34;100.00;94575.19;10402049;28;20031;-78
2021/05/26 18:04:28;;;;;;;17.03;7.90;;;;;;;21.28;100.00;94551.16;10402745;28;20025;-77
2021/05/26 18:09:28;;;;;;;11.20;8.13;;;;;;;21.14;100.00;94548.81;10400684;28;20805;-78
2021/05/26 18:14:29;;;;;;;24.90;9.60;;;;;;;21.00;100.00;94569.13;10403527;28;20475;-77
2021/05/26 18:19:29;;;;;;;18.85;9.40;;;;;;;20.94;100.00;94570.47;10403474;28;20042;-77
2021/05/26 18:24:30;;;;;;;13.70;9.33;;;;;;;20.44;100.00;94566.94;10423949;28;20063;-78
2021/05/26 18:29:34;;;;;;;19.58;10.45;;;;;;;20.17;100.00;94590.22;10443322;28;20550;-78
2021/05/26 18:34:35;;;;;;;31.40;12.23;;;;;;;19.90;100.00;94586.97;10443071;28;20036;-78
2021/05/26 18:39:35;;;;;;;27.35;12.70;;;;;;;19.50;100.00;94590.19;10443368;28;20028;-77
2021/05/26 18:44:35;;;;;;;24.63;12.27;;;;;;;19.14;100.00;94618.81;10442958;28;20020;-77
2021/05/26 18:49:36;;;;;;;29.23;14.70;;;;;;;19.03;100.00;94637.47;10441917;28;20299;-77
2021/05/26 18:54:36;;;;;;;28.13;16.43;;;;;;;18.87;100.00;94675.34;10442682;28;20021;-78
2021/05/26 18:59:37;;;;;;;36.13;19.60;;;;;;;18.49;100.00;94692.44;10423106;28;20272;-79
2021/05/26 19:04:39;;;;;;;31.33;16.65;;;;;;;18.35;100.00;94736.16;10404769;28;20107;-77
2021/05/26 19:09:39;;;;;;;40.08;19.08;;;;;;;18.24;100.00;94784.66;10441843;28;20381;-79
2021/05/26 19:14:39;;;;;;;34.67;20.27;;;;;;;17.75;100.00;94794.84;10440679;28;20025;-77
2021/05/26 19:19:40;;;;;;;48.30;24.33;;;;;;;17.83;100.00;94772.28;10442095;28;20037;-77
2021/05/26 19:24:40;;;;;;;37.67;20.37;;;;;;;17.84;100.00;94760.31;10441915;28;20043;-76
2021/05/26 19:29:41;;;;;;;42.97;21.03;;;;;;;17.65;100.00;94763.34;10441029;28;20033;-77
2021/05/26 19:34:42;;;;;;;41.22;23.75;;;;;;;17.36;100.00;94763.91;10441680;28;20036;-77
2021/05/26 19:39:43;;;;;;;38.17;24.02;;;;;;;17.32;100.00;94776.53;10442220;28;20025;-77
2021/05/26 19:44:43;;;;;;;43.42;29.02;;;;;;;17.11;100.00;94796.09;10441425;28;20028;-77
2021/05/26 19:49:44;;;;;;;47.80;30.87;;;;;;;16.90;100.00;94766.78;10441768;28;20392;-77
2021/05/26 19:54:44;;;;;;;50.95;30.88;;;;;;;16.91;100.00;94771.09;10441964;28;20067;-78
2021/05/26 19:59:45;;;;;;;35.50;25.20;;;;;;;16.79;100.00;94749.13;10441460;28;20021;-78
2021/05/26 20:04:45;;;;;;;37.17;23.88;;;;;;;16.71;100.00;94739.81;10441872;28;20511;-78
2021/05/26 20:09:46;;;;;;;37.17;25.08;;;;;;;16.67;100.00;94760.53;10441387;28;20036;-78
2021/05/26 20:14:53;;;;;;;38.10;27.08;;;;;;;16.53;100.00;94778.81;10447613;28;20499;-77
2021/05/26 20:19:54;;;;;;;35.20;24.52;;;;;;;16.52;100.00;94788.88;10448409;28;20093;-78
2021/05/26 20:24:55;;;;;;;36.87;25.07;;;;;;;16.52;100.00;94802.44;10447511;28;20075;-76
2021/05/26 20:29:55;;;;;;;30.00;21.83;;;;;;;16.49;100.00;94789.47;10428460;28;20032;-76
2021/05/26 20:34:56;;;;;;;31.33;20.70;;;;;;;16.36;100.00;94791.16;10404770;28;20026;-76
2021/05/26 20:39:56;;;;;;;26.93;19.43;;;;;;;16.36;100.00;94788.44;10429401;28;20021;-75
2021/05/26 20:44:57;;;;;;;30.70;21.23;;;;;;;16.31;100.00;94790.47;10445738;28;20275;-75
2021/05/26 20:49:57;;;;;;;23.80;18.67;;;;;;;16.42;100.00;94791.84;10445119;28;20033;-75
2021/05/26 20:54:58;;;;;;;27.13;18.77;;;;;;;16.53;100.00;94787.75;10444526;28;20824;-75
2021/05/26 20:59:58;;;;;;;32.90;21.40;;;;;;;16.53;100.00;94801.31;10443589;28;20477;-75
2021/05/26 21:04:58;;;;;;;24.77;19.53;;;;;;;16.65;100.00;94797.28;10445635;28;20016;-75
2021/05/26 21:09:59;;;;;;;32.37;21.10;;;;;;;16.67;100.00;94792.31;10444736;28;20031;-75
2021/05/26 21:14:59;;;;;;;28.50;18.42;;;;;;;16.60;100.00;94792.75;10444898;28;20062;-76
2021/05/26 21:20:00;;;;;;;27.17;16.98;;;;;;;16.65;100.00;94765.50;10443846;28;20028;-75
2021/05/26 21:25:00;;;;;;;22.98;14.57;;;;;;;16.64;100.00;94752.25;10443109;28;20096;-74
2021/05/26 21:30:01;;;;;;;17.83;13.00;;;;;;;16.52;100.00;94744.66;10442678;28;20083;-76
2021/05/26 21:35:01;;;;;;;16.63;12.03;;;;;;;16.44;100.00;94735.38;10444551;28;20057;-76
2021/05/26 21:40:03;;;;;;;18.77;12.20;;;;;;;16.38;100.00;94723.03;10444686;28;20275;-76
2021/05/26 21:45:05;;;;;;;16.80;12.68;;;;;;;16.39;100.00;94721.94;10443440;28;20028;-76
2021/05/26 21:50:08;;;;;;;18.33;12.50;;;;;;;16.40;100.00;94697.22;10444299;28;20028;-75
2021/05/26 21:55:09;;;;;;;16.00;13.13;;;;;;;16.42;100.00;94686.03;10443973;28;20048;-75
2021/05/26 22:00:15;;;;;;;19.75;12.50;;;;;;;16.40;100.00;94674.72;10443128;28;20025;-75
2021/05/26 22:05:15;;;;;;;20.27;14.38;;;;;;;16.28;100.00;94678.00;10443026;28;20025;-76
2021/05/26 22:10:16;;;;;;;17.15;13.57;;;;;;;16.28;100.00;94674.50;10441286;28;20024;-76
2021/05/26 22:15:20;;;;;;;17.92;13.73;;;;;;;16.17;100.00;94658.50;10443437;28;20143;-77
2021/05/26 22:20:23;;;;;;;19.27;13.40;;;;;;;16.12;100.00;94645.06;10442884;28;20230;-76
2021/05/26 22:25:25;;;;;;;18.65;12.90;;;;;;;16.11;100.00;94637.25;10442515;28;20407;-77
2021/05/26 22:30:27;;;;;;;33.47;14.52;;;;;;;16.06;100.00;94643.56;10442802;28;20056;-76
2021/05/26 22:35:28;;;;;;;19.83;14.30;;;;;;;16.08;100.00;94649.50;10442284;28;20409;-76
2021/05/26 22:40:28;;;;;;;25.77;14.82;;;;;;;16.10;100.00;94631.00;10442251;28;20029;-76
2021/05/26 22:50:36;;;;;;;18.17;13.23;;;;;;;16.09;100.00;94634.03;10441694;28;20052;-77
2021/05/26 22:55:37;;;;;;;18.13;12.87;;;;;;;16.08;100.00;94622.38;10442124;28;20086;-76
2021/05/26 23:00:43;;;;;;;25.20;14.90;;;;;;;16.03;100.00;94609.78;10441965;28;20486;-77